Winn, MI

11:28 AM EST on Marzo 03, 2015 (GMT -0500)
NE Richland Twp | Change Station
CLOSE
Current Station
Personal Weather Stations
Location: Vestaburg, MI
Elevation: 948 ft
Nearby Weather Stations
Active Advisory: Winter Weather Advisory

Elev 948 ft 43.44 °N, 84.96 °W | Updated 14 seconds ago

Nevisca
Nevisca
22.8 °F
Feels Like 23 °F
N
1.8
Vento Variable Vento from Leste
Gusts 2.5 mph

Hoxe
High -- | Low -- °F
--% Chance of Precip.
Yesterday
High -- | Low -- °F
Precip. -- pol
7:13 AM 6:30 PM
Waxing Gibbous, 96% visible
Presión 29.83 pol
Visibilidade 0.5 Millas
Nubes Encapotado 500 ft
Vento Xeado 23 °F
Nivel de Rosada 16 °F
Humidade 75%
Rainfall 0.00 pol
Fondo da neve Not available.
UV 1.0 out of 12
Pollen .30 out of 12
Air Quality Not available.
Flu Activity Not available.
METAR KMOP 031615Z AUTO 13009G14KT 1/2SM SN OVC005 M05/M06 A2983 RMK AO2 T10501065

More Conditions Fewer Conditions

Presión 29.83 pol
Visibilidade 0.5 Millas
Nubes Encapotado 500 ft
Vento Xeado 23 °F
Nivel de Rosada 16 °F
Humidade 75%
Rainfall 0.00 pol
Fondo da neve Not available.
UV 1.0 out of 12
Pollen .30 out of 12
Air Quality Not available.
Flu Activity Not available.
METAR KMOP 031615Z AUTO 13009G14KT 1/2SM SN OVC005 M05/M06 A2983 RMK AO2 T10501065

More Conditions Fewer Conditions

10-Day Weather Forecast

Almanac

Astronomía

Mar. 03, 2015 Rise Set
Tempo actual
Crepúsculo civil
Crepúsculo náutico
Crepúsculo astronómico
Lúa
Lonxitude da luz visíbel
Length of Day
Tomorrow will be .
, % of the Moon is Illuminated

Today's Extremes

State Highs State Lows

Community

WunderPhotos

Upload Photos

1,802,156 photos uploaded!

WunderBlogs® & News

Nearby

Air Quality

  Air Quality AQ Index Pollutant
Not available.

Snow Depth

Station Depth Elevation

Earthquake Activity

Cidade Distance Mag. Time & Date
Minimum magnitude displayed is 2.5.

Coastal Water Temperatures

Lugar Temperatura

Nearby Weather Stations

Winter Weather Advisory
Statement as of 03:34 AM EST on Marzo 03, 2015

... Winter Weather Advisory remains in effect from 7 am this
morning to 8 PM EST this evening...

Hazardous weather...

* snow will become more steady toward morning.

* 2 to 4 inches of snow is expected.

* Snow will mix with sleet and freezing rain south of the U.S.
   10 corridor.

* Freezing drizzle is expected this evening.

Impacts...

* slippery travel will develop today from the mixture of
   precipitation.

* Travel speeds will be slowed due to snow covered roads and in
   some areas sleet and a glaze of ice.

Precautionary/preparedness actions...

* be prepared to encounter a quick burst of snow that will
   limit visibility.

* In areas south of U.S. 10 roads will become slick from a mix
   of precipitation that may include a glaze of ice.

* The Michigan Department of Transportation reminds motorists
   to adjust speeds based on the conditions... and to take it
   slow in ice and snow.